sensor_id;sensor_type;location;lat;lon;timestamp;P1;P2;P0
35654;PMS1003;21773;50.010;19.972;2023-06-22T00:02:03;10.00;8.50;7.00
35654;PMS1003;21773;50.010;19.972;2023-06-22T00:05:08;10.00;10.00;9.00
35654;PMS1003;21773;50.010;19.972;2023-06-22T00:08:11;10.00;8.00;7.00
35654;PMS1003;21773;50.010;19.972;2023-06-22T00:11:15;11.00;11.00;10.00
35654;PMS1003;21773;50.010;19.972;2023-06-22T00:14:18;10.60;10.00;9.00
35654;PMS1003;21773;50.010;19.972;2023-06-22T00:17:22;12.00;11.20;10.00
35654;PMS1003;21773;50.010;19.972;2023-06-22T00:20:26;12.75;11.75;10.00
35654;PMS1003;21773;50.010;19.972;2023-06-22T00:23:32;12.00;12.00;10.00
35654;PMS1003;21773;50.010;19.972;2023-06-22T00:26:36;13.40;12.40;11.80
35654;PMS1003;21773;50.010;19.972;2023-06-22T00:29:43;13.50;12.00;10.00
35654;PMS1003;21773;50.010;19.972;2023-06-22T00:32:47;13.80;11.80;10.80
35654;PMS1003;21773;50.010;19.972;2023-06-22T00:35:51;11.80;10.60;8.80
35654;PMS1003;21773;50.010;19.972;2023-06-22T00:38:56;14.00;12.00;9.80
35654;PMS1003;21773;50.010;19.972;2023-06-22T00:41:59;11.00;11.00;9.60
35654;PMS1003;21773;50.010;19.972;2023-06-22T00:45:05;14.00;12.00;11.00
35654;PMS1003;21773;50.010;19.972;2023-06-22T00:48:09;13.40;12.40;11.00
35654;PMS1003;21773;50.010;19.972;2023-06-22T00:51:15;12.00;10.00;9.00
35654;PMS1003;21773;50.010;19.972;2023-06-22T00:54:19;12.50;11.50;9.50
35654;PMS1003;21773;50.010;19.972;2023-06-22T00:57:27;12.60;11.60;9.60
35654;PMS1003;21773;50.010;19.972;2023-06-22T01:00:31;12.60;12.00;10.60
35654;PMS1003;21773;50.010;19.972;2023-06-22T01:03:35;13.80;12.00;9.80
35654;PMS1003;21773;50.010;19.972;2023-06-22T01:06:41;12.00;11.00;10.00
35654;PMS1003;21773;50.010;19.972;2023-06-22T01:09:57;13.60;13.00;10.60
35654;PMS1003;21773;50.010;19.972;2023-06-22T01:13:07;13.00;11.40;10.40
35654;PMS1003;21773;50.010;19.972;2023-06-22T01:16:17;13.00;12.00;10.00
35654;PMS1003;21773;50.010;19.972;2023-06-22T01:19:29;13.50;12.50;11.00
35654;PMS1003;21773;50.010;19.972;2023-06-22T01:22:50;14.40;12.40;12.00
35654;PMS1003;21773;50.010;19.972;2023-06-22T01:26:12;13.00;12.00;10.00
35654;PMS1003;21773;50.010;19.972;2023-06-22T01:29:23;11.00;10.00;9.00
35654;PMS1003;21773;50.010;19.972;2023-06-22T01:32:30;14.40;14.00;12.00
35654;PMS1003;21773;50.010;19.972;2023-06-22T01:35:35;12.00;12.00;11.00
35654;PMS1003;21773;50.010;19.972;2023-06-22T01:38:40;11.20;11.00;10.00
35654;PMS1003;21773;50.010;19.972;2023-06-22T01:41:45;12.00;11.00;11.00
35654;PMS1003;21773;50.010;19.972;2023-06-22T01:44:52;13.00;13.00;10.75
35654;PMS1003;21773;50.010;19.972;2023-06-22T01:47:56;15.00;13.00;11.40
35654;PMS1003;21773;50.010;19.972;2023-06-22T01:51:00;12.00;11.00;9.40
35654;PMS1003;21773;50.010;19.972;2023-06-22T01:54:06;12.00;12.00;10.00
35654;PMS1003;21773;50.010;19.972;2023-06-22T01:57:10;10.00;9.80;8.20
35654;PMS1003;21773;50.010;19.972;2023-06-22T02:00:16;11.00;10.00;8.00
35654;PMS1003;21773;50.010;19.972;2023-06-22T02:03:26;10.00;9.00;8.50
35654;PMS1003;21773;50.010;19.972;2023-06-22T02:06:36;12.00;11.00;10.00
35654;PMS1003;21773;50.010;19.972;2023-06-22T02:09:44;13.40;12.80;10.40
35654;PMS1003;21773;50.010;19.972;2023-06-22T02:12:50;12.00;11.00;9.60
35654;PMS1003;21773;50.010;19.972;2023-06-22T02:15:56;14.80;13.00;10.80
35654;PMS1003;21773;50.010;19.972;2023-06-22T02:19:01;12.00;11.00;10.80
35654;PMS1003;21773;50.010;19.972;2023-06-22T02:22:08;12.20;10.80;9.20
35654;PMS1003;21773;50.010;19.972;2023-06-22T02:25:11;11.00;10.00;9.00
35654;PMS1003;21773;50.010;19.972;2023-06-22T02:28:14;11.40;9.00;8.00
35654;PMS1003;21773;50.010;19.972;2023-06-22T02:31:20;13.00;11.40;10.00
35654;PMS1003;21773;50.010;19.972;2023-06-22T02:34:24;9.40;8.00;7.00
35654;PMS1003;21773;50.010;19.972;2023-06-22T02:37:27;11.00;10.60;9.00
35654;PMS1003;21773;50.010;19.972;2023-06-22T02:40:31;12.00;11.00;10.00
35654;PMS1003;21773;50.010;19.972;2023-06-22T02:43:34;10.00;9.00;8.25
35654;PMS1003;21773;50.010;19.972;2023-06-22T02:46:39;9.00;8.80;7.00
35654;PMS1003;21773;50.010;19.972;2023-06-22T02:49:42;11.00;10.00;9.00
35654;PMS1003;21773;50.010;19.972;2023-06-22T02:52:48;12.00;11.00;9.00
35654;PMS1003;21773;50.010;19.972;2023-06-22T02:55:52;11.40;11.00;10.20
35654;PMS1003;21773;50.010;19.972;2023-06-22T02:58:55;12.25;10.75;9.00
35654;PMS1003;21773;50.010;19.972;2023-06-22T03:02:09;12.25;11.00;9.00
35654;PMS1003;21773;50.010;19.972;2023-06-22T03:05:14;12.00;10.60;10.00
35654;PMS1003;21773;50.010;19.972;2023-06-22T03:08:21;11.00;10.00;8.80
35654;PMS1003;21773;50.010;19.972;2023-06-22T03:11:24;13.60;12.00;11.00
35654;PMS1003;21773;50.010;19.972;2023-06-22T03:14:28;10.00;9.60;8.60
35654;PMS1003;21773;50.010;19.972;2023-06-22T03:17:33;11.40;9.60;8.60
35654;PMS1003;21773;50.010;19.972;2023-06-22T03:20:36;12.00;11.00;9.40
35654;PMS1003;21773;50.010;19.972;2023-06-22T03:23:43;11.00;10.75;10.00
35654;PMS1003;21773;50.010;19.972;2023-06-22T03:26:46;13.00;11.00;10.00
35654;PMS1003;21773;50.010;19.972;2023-06-22T03:29:50;11.00;10.50;9.25
35654;PMS1003;21773;50.010;19.972;2023-06-22T03:32:55;10.00;9.00;9.00
35654;PMS1003;21773;50.010;19.972;2023-06-22T03:36:00;11.00;10.00;9.00
35654;PMS1003;21773;50.010;19.972;2023-06-22T03:39:04;11.00;11.00;10.00
35654;PMS1003;21773;50.010;19.972;2023-06-22T03:42:07;11.25;10.00;8.00
35654;PMS1003;21773;50.010;19.972;2023-06-22T03:45:11;13.00;11.00;9.00
35654;PMS1003;21773;50.010;19.972;2023-06-22T03:48:16;13.20;12.00;11.40
35654;PMS1003;21773;50.010;19.972;2023-06-22T03:51:20;12.00;12.00;10.60
35654;PMS1003;21773;50.010;19.972;2023-06-22T03:54:23;14.00;12.00;10.00
35654;PMS1003;21773;50.010;19.972;2023-06-22T03:57:26;14.75;13.00;11.00
35654;PMS1003;21773;50.010;19.972;2023-06-22T04:00:30;13.20;11.20;9.80
35654;PMS1003;21773;50.010;19.972;2023-06-22T04:03:34;13.00;12.00;10.00
35654;PMS1003;21773;50.010;19.972;2023-06-22T04:06:38;11.25;10.75;9.00
35654;PMS1003;21773;50.010;19.972;2023-06-22T04:09:42;13.60;12.00;10.00
35654;PMS1003;21773;50.010;19.972;2023-06-22T04:12:46;12.00;10.40;9.00
35654;PMS1003;21773;50.010;19.972;2023-06-22T04:15:50;15.40;13.40;11.40
35654;PMS1003;21773;50.010;19.972;2023-06-22T04:18:55;14.00;13.00;12.00
35654;PMS1003;21773;50.010;19.972;2023-06-22T04:21:58;12.00;11.60;10.00
35654;PMS1003;21773;50.010;19.972;2023-06-22T04:25:02;12.60;12.00;10.00
35654;PMS1003;21773;50.010;19.972;2023-06-22T04:28:05;13.40;11.40;9.40
35654;PMS1003;21773;50.010;19.972;2023-06-22T04:31:14;11.00;11.00;9.40
35654;PMS1003;21773;50.010;19.972;2023-06-22T04:34:19;13.00;12.00;10.00
35654;PMS1003;21773;50.010;19.972;2023-06-22T04:37:22;16.00;12.00;10.25
35654;PMS1003;21773;50.010;19.972;2023-06-22T04:40:26;11.00;10.50;9.00
35654;PMS1003;21773;50.010;19.972;2023-06-22T04:43:29;12.00;11.00;9.00
35654;PMS1003;21773;50.010;19.972;2023-06-22T04:46:33;10.00;8.80;8.00
35654;PMS1003;21773;50.010;19.972;2023-06-22T04:49:41;11.00;10.25;9.50
35654;PMS1003;21773;50.010;19.972;2023-06-22T04:52:45;11.00;11.00;9.00
35654;PMS1003;21773;50.010;19.972;2023-06-22T04:55:48;10.00;10.00;9.00
35654;PMS1003;21773;50.010;19.972;2023-06-22T04:58:51;12.00;11.00;9.80
35654;PMS1003;21773;50.010;19.972;2023-06-22T05:01:59;10.00;9.00;8.00
35654;PMS1003;21773;50.010;19.972;2023-06-22T05:05:06;13.40;10.60;8.60
35654;PMS1003;21773;50.010;19.972;2023-06-22T05:08:10;10.80;9.80;8.00
35654;PMS1003;21773;50.010;19.972;2023-06-22T05:11:14;11.00;11.00;10.00
35654;PMS1003;21773;50.010;19.972;2023-06-22T05:14:18;11.00;10.00;8.40
35654;PMS1003;21773;50.010;19.972;2023-06-22T05:17:21;13.00;11.00;9.80
35654;PMS1003;21773;50.010;19.972;2023-06-22T05:20:26;13.60;11.00;9.60
35654;PMS1003;21773;50.010;19.972;2023-06-22T05:23:30;10.00;9.50;8.00
35654;PMS1003;21773;50.010;19.972;2023-06-22T05:26:33;11.00;10.60;9.00
35654;PMS1003;21773;50.010;19.972;2023-06-22T05:29:37;10.75;9.25;8.00
35654;PMS1003;21773;50.010;19.972;2023-06-22T05:32:41;12.00;10.75;9.00
35654;PMS1003;21773;50.010;19.972;2023-06-22T05:35:47;11.00;10.00;9.00
35654;PMS1003;21773;50.010;19.972;2023-06-22T05:38:51;10.00;10.00;8.00
35654;PMS1003;21773;50.010;19.972;2023-06-22T05:41:55;10.60;9.60;8.00
35654;PMS1003;21773;50.010;19.972;2023-06-22T05:44:58;10.00;8.40;7.00
35654;PMS1003;21773;50.010;19.972;2023-06-22T05:48:02;9.20;9.20;7.20
35654;PMS1003;21773;50.010;19.972;2023-06-22T05:51:07;9.75;9.00;7.50
35654;PMS1003;21773;50.010;19.972;2023-06-22T05:54:11;11.00;11.00;9.40
35654;PMS1003;21773;50.010;19.972;2023-06-22T05:57:17;12.40;12.00;10.60
35654;PMS1003;21773;50.010;19.972;2023-06-22T06:00:20;8.80;8.00;7.00
35654;PMS1003;21773;50.010;19.972;2023-06-22T06:03:25;11.00;10.00;9.00
35654;PMS1003;21773;50.010;19.972;2023-06-22T06:06:32;10.40;10.00;8.00
35654;PMS1003;21773;50.010;19.972;2023-06-22T06:09:39;10.00;9.00;7.00
35654;PMS1003;21773;50.010;19.972;2023-06-22T06:12:42;10.00;9.00;7.20
35654;PMS1003;21773;50.010;19.972;2023-06-22T06:15:45;9.60;9.60;8.00
35654;PMS1003;21773;50.010;19.972;2023-06-22T06:18:49;11.75;11.00;9.00
35654;PMS1003;21773;50.010;19.972;2023-06-22T06:21:54;12.20;11.00;10.00
35654;PMS1003;21773;50.010;19.972;2023-06-22T06:24:57;14.50;13.00;11.00
35654;PMS1003;21773;50.010;19.972;2023-06-22T06:28:00;11.60;9.20;8.60
35654;PMS1003;21773;50.010;19.972;2023-06-22T06:31:05;15.00;13.00;11.60
35654;PMS1003;21773;50.010;19.972;2023-06-22T06:34:09;12.75;12.00;10.25
35654;PMS1003;21773;50.010;19.972;2023-06-22T06:37:14;11.75;11.00;9.50
35654;PMS1003;21773;50.010;19.972;2023-06-22T06:40:17;14.40;12.40;10.40
35654;PMS1003;21773;50.010;19.972;2023-06-22T06:43:21;13.00;12.00;9.50
35654;PMS1003;21773;50.010;19.972;2023-06-22T06:46:26;16.20;14.60;11.60
35654;PMS1003;21773;50.010;19.972;2023-06-22T06:49:30;15.60;14.00;11.60
35654;PMS1003;21773;50.010;19.972;2023-06-22T06:52:34;12.20;11.20;9.00
35654;PMS1003;21773;50.010;19.972;2023-06-22T06:55:39;14.60;14.00;12.00
35654;PMS1003;21773;50.010;19.972;2023-06-22T06:58:43;11.00;11.00;10.00
35654;PMS1003;21773;50.010;19.972;2023-06-22T07:01:47;18.00;15.00;12.20
35654;PMS1003;21773;50.010;19.972;2023-06-22T07:04:50;18.50;17.00;14.00
35654;PMS1003;21773;50.010;19.972;2023-06-22T07:07:55;15.00;14.40;12.40
35654;PMS1003;21773;50.010;19.972;2023-06-22T07:10:59;15.40;14.40;12.00
35654;PMS1003;21773;50.010;19.972;2023-06-22T07:14:02;14.00;12.00;10.40
35654;PMS1003;21773;50.010;19.972;2023-06-22T07:17:06;16.00;15.00;13.00
35654;PMS1003;21773;50.010;19.972;2023-06-22T07:20:10;18.00;16.00;14.00
35654;PMS1003;21773;50.010;19.972;2023-06-22T07:23:15;19.60;17.60;15.00
35654;PMS1003;21773;50.010;19.972;2023-06-22T07:26:20;20.00;18.00;15.00
35654;PMS1003;21773;50.010;19.972;2023-06-22T07:29:23;20.00;18.75;16.75
35654;PMS1003;21773;50.010;19.972;2023-06-22T07:32:27;21.00;19.00;16.50
35654;PMS1003;21773;50.010;19.972;2023-06-22T07:35:31;17.20;16.20;13.80
35654;PMS1003;21773;50.010;19.972;2023-06-22T07:38:36;21.40;18.40;15.60
35654;PMS1003;21773;50.010;19.972;2023-06-22T07:41:39;22.40;20.00;16.00
35654;PMS1003;21773;50.010;19.972;2023-06-22T07:44:43;19.00;18.67;15.00
35654;PMS1003;21773;50.010;19.972;2023-06-22T07:47:46;20.00;18.00;15.75
35654;PMS1003;21773;50.010;19.972;2023-06-22T07:50:50;18.00;17.00;14.00
35654;PMS1003;21773;50.010;19.972;2023-06-22T07:53:56;17.00;17.00;14.00
35654;PMS1003;21773;50.010;19.972;2023-06-22T07:56:59;20.20;19.00;15.40
35654;PMS1003;21773;50.010;19.972;2023-06-22T08:00:03;20.60;18.60;15.60
35654;PMS1003;21773;50.010;19.972;2023-06-22T08:03:14;23.00;20.00;17.75
35654;PMS1003;21773;50.010;19.972;2023-06-22T08:06:17;20.25;19.00;16.00
35654;PMS1003;21773;50.010;19.972;2023-06-22T08:09:22;21.25;18.00;15.00
35654;PMS1003;21773;50.010;19.972;2023-06-22T08:12:25;20.25;18.25;15.25
35654;PMS1003;21773;50.010;19.972;2023-06-22T08:15:29;22.80;20.00;17.00
35654;PMS1003;21773;50.010;19.972;2023-06-22T08:18:33;23.20;21.60;18.40
35654;PMS1003;21773;50.010;19.972;2023-06-22T08:21:36;19.20;18.20;16.20
35654;PMS1003;21773;50.010;19.972;2023-06-22T08:24:41;21.00;20.00;18.00
35654;PMS1003;21773;50.010;19.972;2023-06-22T08:27:45;23.00;21.00;18.00
35654;PMS1003;21773;50.010;19.972;2023-06-22T08:30:50;21.00;20.00;17.00
35654;PMS1003;21773;50.010;19.972;2023-06-22T08:33:53;23.50;22.50;19.00
35654;PMS1003;21773;50.010;19.972;2023-06-22T08:36:57;26.80;24.40;20.00
35654;PMS1003;21773;50.010;19.972;2023-06-22T08:40:02;24.00;22.00;17.60
35654;PMS1003;21773;50.010;19.972;2023-06-22T08:43:07;23.40;22.40;18.40
35654;PMS1003;21773;50.010;19.972;2023-06-22T08:46:11;24.00;22.50;19.00
35654;PMS1003;21773;50.010;19.972;2023-06-22T08:49:14;24.80;22.20;18.60
35654;PMS1003;21773;50.010;19.972;2023-06-22T08:52:18;22.20;20.80;16.20
35654;PMS1003;21773;50.010;19.972;2023-06-22T08:55:23;23.60;20.60;17.60
35654;PMS1003;21773;50.010;19.972;2023-06-22T08:58:26;22.00;21.00;18.00
35654;PMS1003;21773;50.010;19.972;2023-06-22T09:01:29;22.25;21.00;18.00
35654;PMS1003;21773;50.010;19.972;2023-06-22T09:04:33;22.50;20.50;18.00
35654;PMS1003;21773;50.010;19.972;2023-06-22T09:07:38;25.60;23.60;20.00
35654;PMS1003;21773;50.010;19.972;2023-06-22T09:10:42;21.00;20.00;17.00
35654;PMS1003;21773;50.010;19.972;2023-06-22T09:13:46;21.75;20.50;16.75
35654;PMS1003;21773;50.010;19.972;2023-06-22T09:16:49;27.00;23.00;19.00
35654;PMS1003;21773;50.010;19.972;2023-06-22T09:19:52;25.80;22.80;19.00
35654;PMS1003;21773;50.010;19.972;2023-06-22T09:22:56;27.60;24.80;20.40
35654;PMS1003;21773;50.010;19.972;2023-06-22T09:26:01;25.00;23.20;18.80
35654;PMS1003;21773;50.010;19.972;2023-06-22T09:29:05;25.40;23.60;19.40
35654;PMS1003;21773;50.010;19.972;2023-06-22T09:32:09;24.50;23.50;20.00
35654;PMS1003;21773;50.010;19.972;2023-06-22T09:35:12;23.50;21.00;18.00
35654;PMS1003;21773;50.010;19.972;2023-06-22T09:38:16;23.75;20.25;17.00
35654;PMS1003;21773;50.010;19.972;2023-06-22T09:41:21;23.40;22.00;18.40
35654;PMS1003;21773;50.010;19.972;2023-06-22T09:44:24;23.00;21.00;18.00
35654;PMS1003;21773;50.010;19.972;2023-06-22T09:47:28;24.00;23.00;19.00
35654;PMS1003;21773;50.010;19.972;2023-06-22T09:50:32;22.25;20.25;18.00
35654;PMS1003;21773;50.010;19.972;2023-06-22T09:53:35;18.50;16.50;14.50
35654;PMS1003;21773;50.010;19.972;2023-06-22T09:56:41;21.00;19.60;16.60
35654;PMS1003;21773;50.010;19.972;2023-06-22T09:59:44;19.00;17.00;15.00
35654;PMS1003;21773;50.010;19.972;2023-06-22T10:02:51;22.60;21.20;16.80
35654;PMS1003;21773;50.010;19.972;2023-06-22T10:05:54;21.60;19.60;15.60
35654;PMS1003;21773;50.010;19.972;2023-06-22T10:08:58;20.00;19.00;16.50
35654;PMS1003;21773;50.010;19.972;2023-06-22T10:12:02;20.00;18.40;15.40
35654;PMS1003;21773;50.010;19.972;2023-06-22T10:15:06;18.60;18.00;15.00
35654;PMS1003;21773;50.010;19.972;2023-06-22T10:18:11;18.00;16.00;14.00
35654;PMS1003;21773;50.010;19.972;2023-06-22T10:21:14;16.00;15.00;13.00
35654;PMS1003;21773;50.010;19.972;2023-06-22T10:24:18;21.00;19.00;16.00
35654;PMS1003;21773;50.010;19.972;2023-06-22T10:27:22;17.80;17.80;14.80
35654;PMS1003;21773;50.010;19.972;2023-06-22T10:30:26;18.00;17.00;15.60
35654;PMS1003;21773;50.010;19.972;2023-06-22T10:33:30;19.00;18.00;16.00
35654;PMS1003;21773;50.010;19.972;2023-06-22T10:36:34;18.50;16.00;14.00
35654;PMS1003;21773;50.010;19.972;2023-06-22T10:39:37;17.00;16.00;14.00
35654;PMS1003;21773;50.010;19.972;2023-06-22T10:42:42;17.20;16.20;15.00
35654;PMS1003;21773;50.010;19.972;2023-06-22T10:45:46;17.00;15.00;13.00
35654;PMS1003;21773;50.010;19.972;2023-06-22T10:48:49;19.75;17.75;15.00
35654;PMS1003;21773;50.010;19.972;2023-06-22T10:51:56;15.67;15.00;14.00
35654;PMS1003;21773;50.010;19.972;2023-06-22T10:55:01;15.00;14.40;13.40
35654;PMS1003;21773;50.010;19.972;2023-06-22T10:58:05;18.60;17.00;14.60
35654;PMS1003;21773;50.010;19.972;2023-06-22T11:01:10;16.00;15.00;13.00
35654;PMS1003;21773;50.010;19.972;2023-06-22T11:04:33;15.80;14.00;12.00
35654;PMS1003;21773;50.010;19.972;2023-06-22T11:07:37;17.00;16.00;13.00
35654;PMS1003;21773;50.010;19.972;2023-06-22T11:10:47;16.60;16.00;14.00
35654;PMS1003;21773;50.010;19.972;2023-06-22T11:13:52;15.00;14.00;11.40
35654;PMS1003;21773;50.010;19.972;2023-06-22T11:16:55;14.50;14.00;13.00
35654;PMS1003;21773;50.010;19.972;2023-06-22T11:19:59;15.00;14.00;13.00
35654;PMS1003;21773;50.010;19.972;2023-06-22T11:23:03;15.75;14.00;13.00
35654;PMS1003;21773;50.010;19.972;2023-06-22T11:26:07;16.00;15.00;13.00
35654;PMS1003;21773;50.010;19.972;2023-06-22T11:29:11;15.40;14.60;12.40
35654;PMS1003;21773;50.010;19.972;2023-06-22T11:32:28;17.00;15.00;14.00
35654;PMS1003;21773;50.010;19.972;2023-06-22T11:35:32;16.20;15.20;13.80
35654;PMS1003;21773;50.010;19.972;2023-06-22T11:38:35;14.00;13.00;11.00
35654;PMS1003;21773;50.010;19.972;2023-06-22T11:41:40;16.00;14.00;13.00
35654;PMS1003;21773;50.010;19.972;2023-06-22T11:44:45;15.00;14.00;12.50
35654;PMS1003;21773;50.010;19.972;2023-06-22T11:47:49;15.50;15.00;13.00
35654;PMS1003;21773;50.010;19.972;2023-06-22T11:50:52;14.00;14.00;12.00
35654;PMS1003;21773;50.010;19.972;2023-06-22T11:53:59;14.80;14.00;12.00
35654;PMS1003;21773;50.010;19.972;2023-06-22T11:57:02;14.60;13.00;11.00
35654;PMS1003;21773;50.010;19.972;2023-06-22T12:00:08;14.75;13.75;11.75
35654;PMS1003;21773;50.010;19.972;2023-06-22T12:03:19;15.00;14.40;12.40
35654;PMS1003;21773;50.010;19.972;2023-06-22T12:06:23;14.00;12.00;11.00
35654;PMS1003;21773;50.010;19.972;2023-06-22T12:09:27;16.00;15.00;13.75
35654;PMS1003;21773;50.010;19.972;2023-06-22T12:12:30;15.60;15.00;13.60
35654;PMS1003;21773;50.010;19.972;2023-06-22T12:15:35;16.00;14.25;12.00
35654;PMS1003;21773;50.010;19.972;2023-06-22T12:18:38;14.20;14.00;12.20
35654;PMS1003;21773;50.010;19.972;2023-06-22T12:21:42;19.00;19.00;16.00
35654;PMS1003;21773;50.010;19.972;2023-06-22T12:24:47;17.00;16.00;13.00
35654;PMS1003;21773;50.010;19.972;2023-06-22T12:27:51;16.60;15.00;13.00
35654;PMS1003;21773;50.010;19.972;2023-06-22T12:30:56;13.00;13.00;10.33
35654;PMS1003;21773;50.010;19.972;2023-06-22T12:34:00;13.80;12.00;11.00
35654;PMS1003;21773;50.010;19.972;2023-06-22T12:37:03;12.20;11.80;10.80
35654;PMS1003;21773;50.010;19.972;2023-06-22T12:40:08;16.00;14.00;11.25
35654;PMS1003;21773;50.010;19.972;2023-06-22T12:43:12;13.60;13.00;12.00
35654;PMS1003;21773;50.010;19.972;2023-06-22T12:46:17;16.00;14.00;12.00
35654;PMS1003;21773;50.010;19.972;2023-06-22T12:49:21;13.00;13.00;12.00
35654;PMS1003;21773;50.010;19.972;2023-06-22T12:52:24;16.00;15.00;14.00
35654;PMS1003;21773;50.010;19.972;2023-06-22T12:55:27;15.00;14.00;13.00
35654;PMS1003;21773;50.010;19.972;2023-06-22T12:58:31;13.40;12.40;11.40
35654;PMS1003;21773;50.010;19.972;2023-06-22T13:01:36;14.00;13.00;11.50
35654;PMS1003;21773;50.010;19.972;2023-06-22T13:04:39;14.00;13.00;11.60
35654;PMS1003;21773;50.010;19.972;2023-06-22T13:07:45;12.60;11.60;10.00
35654;PMS1003;21773;50.010;19.972;2023-06-22T13:10:48;14.60;13.00;11.00
35654;PMS1003;21773;50.010;19.972;2023-06-22T13:13:52;13.00;13.00;12.00
35654;PMS1003;21773;50.010;19.972;2023-06-22T13:16:56;17.00;16.00;13.00
35654;PMS1003;21773;50.010;19.972;2023-06-22T13:20:00;16.40;14.00;12.00
35654;PMS1003;21773;50.010;19.972;2023-06-22T13:23:03;14.00;13.75;11.75
35654;PMS1003;21773;50.010;19.972;2023-06-22T13:26:07;14.00;13.00;11.00
35654;PMS1003;21773;50.010;19.972;2023-06-22T13:29:10;14.00;11.80;10.20
35654;PMS1003;21773;50.010;19.972;2023-06-22T13:32:15;13.00;12.00;11.00
35654;PMS1003;21773;50.010;19.972;2023-06-22T13:35:18;14.75;14.00;13.00
35654;PMS1003;21773;50.010;19.972;2023-06-22T13:38:22;14.80;13.80;11.80
35654;PMS1003;21773;50.010;19.972;2023-06-22T13:41:26;13.40;13.40;10.60
35654;PMS1003;21773;50.010;19.972;2023-06-22T13:44:29;12.60;12.40;11.00
35654;PMS1003;21773;50.010;19.972;2023-06-22T13:47:34;11.20;10.60;9.20
35654;PMS1003;21773;50.010;19.972;2023-06-22T13:50:37;14.00;13.00;11.00
35654;PMS1003;21773;50.010;19.972;2023-06-22T13:53:41;12.25;11.25;10.00
35654;PMS1003;21773;50.010;19.972;2023-06-22T13:56:44;14.00;13.00;12.00
35654;PMS1003;21773;50.010;19.972;2023-06-22T13:59:47;12.00;11.00;10.00
35654;PMS1003;21773;50.010;19.972;2023-06-22T14:02:52;13.40;13.00;11.00
35654;PMS1003;21773;50.010;19.972;2023-06-22T14:05:56;12.40;12.00;10.00
35654;PMS1003;21773;50.010;19.972;2023-06-22T14:09:00;15.00;14.00;12.20
35654;PMS1003;21773;50.010;19.972;2023-06-22T14:12:05;13.00;12.00;10.00
35654;PMS1003;21773;50.010;19.972;2023-06-22T14:15:10;12.20;11.80;10.20
35654;PMS1003;21773;50.010;19.972;2023-06-22T14:18:15;11.00;10.20;9.20
35654;PMS1003;21773;50.010;19.972;2023-06-22T14:21:18;13.00;12.25;12.00
35654;PMS1003;21773;50.010;19.972;2023-06-22T14:24:22;12.80;11.00;9.80
35654;PMS1003;21773;50.010;19.972;2023-06-22T14:27:28;12.50;12.50;11.50
35654;PMS1003;21773;50.010;19.972;2023-06-22T14:30:32;12.20;12.00;9.20
35654;PMS1003;21773;50.010;19.972;2023-06-22T14:33:37;13.25;13.00;12.00
35654;PMS1003;21773;50.010;19.972;2023-06-22T14:36:40;12.40;12.00;11.40
35654;PMS1003;21773;50.010;19.972;2023-06-22T14:39:44;12.00;11.00;10.00
35654;PMS1003;21773;50.010;19.972;2023-06-22T14:42:47;14.50;14.00;12.00
35654;PMS1003;21773;50.010;19.972;2023-06-22T14:45:51;13.50;13.00;11.25
35654;PMS1003;21773;50.010;19.972;2023-06-22T14:48:56;15.00;13.40;12.00
35654;PMS1003;21773;50.010;19.972;2023-06-22T14:51:59;13.00;12.25;11.25
35654;PMS1003;21773;50.010;19.972;2023-06-22T14:55:03;13.00;11.00;9.40
35654;PMS1003;21773;50.010;19.972;2023-06-22T14:58:07;13.00;13.00;10.00
35654;PMS1003;21773;50.010;19.972;2023-06-22T15:01:11;12.20;11.20;9.20
35654;PMS1003;21773;50.010;19.972;2023-06-22T15:04:16;14.00;12.40;11.00
35654;PMS1003;21773;50.010;19.972;2023-06-22T15:07:19;14.75;13.00;12.00
35654;PMS1003;21773;50.010;19.972;2023-06-22T15:10:23;14.00;13.50;11.50
35654;PMS1003;21773;50.010;19.972;2023-06-22T15:13:27;15.25;14.25;12.25
35654;PMS1003;21773;50.010;19.972;2023-06-22T15:16:31;13.00;12.40;11.00
35654;PMS1003;21773;50.010;19.972;2023-06-22T15:19:37;13.00;13.00;11.00
35654;PMS1003;21773;50.010;19.972;2023-06-22T15:22:40;14.00;12.00;11.00
35654;PMS1003;21773;50.010;19.972;2023-06-22T15:25:43;11.25;11.25;9.25
35654;PMS1003;21773;50.010;19.972;2023-06-22T15:28:47;13.00;13.00;12.00
35654;PMS1003;21773;50.010;19.972;2023-06-22T15:31:51;12.00;12.00;10.00
35654;PMS1003;21773;50.010;19.972;2023-06-22T15:34:57;14.00;14.00;12.00
35654;PMS1003;21773;50.010;19.972;2023-06-22T15:38:04;12.60;11.60;10.60
35654;PMS1003;21773;50.010;19.972;2023-06-22T15:41:07;16.20;13.00;11.80
35654;PMS1003;21773;50.010;19.972;2023-06-22T15:44:10;14.00;14.00;13.00
35654;PMS1003;21773;50.010;19.972;2023-06-22T15:47:14;14.60;13.60;11.00
35654;PMS1003;21773;50.010;19.972;2023-06-22T15:50:19;14.20;13.80;12.00
35654;PMS1003;21773;50.010;19.972;2023-06-22T15:53:23;15.00;14.00;12.00
35654;PMS1003;21773;50.010;19.972;2023-06-22T15:56:26;13.00;13.00;11.75
35654;PMS1003;21773;50.010;19.972;2023-06-22T15:59:30;18.00;15.00;15.00
35654;PMS1003;21773;50.010;19.972;2023-06-22T16:02:33;13.40;13.00;11.00
35654;PMS1003;21773;50.010;19.972;2023-06-22T16:05:39;15.00;13.00;12.00
35654;PMS1003;21773;50.010;19.972;2023-06-22T16:08:43;13.20;12.80;11.00
35654;PMS1003;21773;50.010;19.972;2023-06-22T16:11:47;14.00;14.00;12.60
35654;PMS1003;21773;50.010;19.972;2023-06-22T16:14:50;14.75;13.75;11.75
35654;PMS1003;21773;50.010;19.972;2023-06-22T16:17:53;14.00;12.80;11.00
35654;PMS1003;21773;50.010;19.972;2023-06-22T16:20:58;17.00;15.00;13.00
35654;PMS1003;21773;50.010;19.972;2023-06-22T16:24:01;16.00;15.00;13.25
35654;PMS1003;21773;50.010;19.972;2023-06-22T16:27:05;13.20;13.00;11.20
35654;PMS1003;21773;50.010;19.972;2023-06-22T16:30:08;14.40;13.40;12.00
35654;PMS1003;21773;50.010;19.972;2023-06-22T16:33:12;14.40;13.40;12.00
35654;PMS1003;21773;50.010;19.972;2023-06-22T16:36:17;13.40;12.60;11.00
35654;PMS1003;21773;50.010;19.972;2023-06-22T16:39:20;15.00;15.00;13.00
35654;PMS1003;21773;50.010;19.972;2023-06-22T16:42:23;12.00;11.40;10.00
35654;PMS1003;21773;50.010;19.972;2023-06-22T16:45:26;16.00;15.00;14.00
35654;PMS1003;21773;50.010;19.972;2023-06-22T16:48:30;13.80;12.80;10.80
35654;PMS1003;21773;50.010;19.972;2023-06-22T16:51:35;17.00;15.00;13.00
35654;PMS1003;21773;50.010;19.972;2023-06-22T16:54:38;15.00;13.00;11.00
35654;PMS1003;21773;50.010;19.972;2023-06-22T16:58:00;13.60;12.60;11.60
35654;PMS1003;21773;50.010;19.972;2023-06-22T17:01:06;14.00;13.60;12.00
35654;PMS1003;21773;50.010;19.972;2023-06-22T17:04:11;15.00;15.00;13.00
35654;PMS1003;21773;50.010;19.972;2023-06-22T17:07:26;14.60;13.00;12.00